KGYH

Donaldson Field Airport

Greenville, South Carolina, USA
METAR KGYH 192247Z 15003KT 10SM -RA BKN010 24/22 A2997 RMK TS347 TS MOV SE
Observed Flight Rules
Aug-19 @ 22:47 UTC (20 minutes ago) Marginal Visual Flight Rules
Wind Visibility Clouds Conditions
150° at 3 knots 10 miles
  • Broken at 1,000' AGL
  • Light Rain
Temperatures Readings
Current 24°C / 75°F
Dewpoint 22°C / 72°F
Humidity 89%
Altimeter 29.97" Hg
Pressure 1015 hPa
Elevation 292
METAR KGYH 192247Z 15003KT 10SM -RA BKN010 24/22 A2997 RMK TS347 TS MOV SE
Observed Flight Rules
Aug-19 @ 22:47 UTC
(20 minutes ago)
MVFR
Wind Visibility
150° at 3 knots 10 miles
Clouds
  • Broken at 1,000' AGL
Conditions
  • Light Rain
Temperature Dewpoint
24°C / 75°F 22°C / 72°F
Humidity Altimeter Pressure
89% 29.97" Hg 1015 hPa